Meat Camp, North Carolina
Current Conditions -  °F | °C
As of 10:15 AM on Friday 31 Oct 2014 (Local Time) from KTNB Reporting Station
Scattered Clouds Scattered Clouds  
Wind Chill: 39°   Ceiling: Unl
Heat Index: 39°   Visibility: 10mi
Dew Point: 37°   Wind: 0mph
Humidity: 91%   Direction: NA
Pressure: 29.94"   Gusts: NA
Location:  36.2085°N, 81.6605°W
Report Text: KTNB 311415Z AUTO 00000KT 10SM SCT012 04/03 A2994 RMK AO2 T00410027
Loading
Personal Weather Stations






























Interactive Weather Map
Tropical Storm Tracking
New forecast layout! Learn more

10-Day Weather Forecast

Advertisements
Track Severe Weather on mobile